Data for 12/29/2016

Time Sea-Level Adjusted Pressure Absolute Pressure Temperature Relative Humidity Dew Point   
(mb) (inHg) (mb) (inHg) (C) (F) (%) (C) (F)
00:05 1029 30.39 858 25.34 -9.6 14.7 49 -18.5 -1.3
00:10 1029 30.39 858 25.34 -9.2 15.5 49 -18.1 -0.6
00:15 1029 30.39 858 25.34 -8.9 15.9 47 -18.3 -0.9
00:20 1029 30.39 858 25.34 -9 15.8 46 -18.6 -1.5
00:25 1029 30.39 858 25.34 -8.9 15.9 45 -18.8 -1.8
00:30 1029 30.39 858 25.34 -9 15.8 45 -18.8 -1.8
00:35 1029 30.39 858 25.34 -9.1 15.6 46 -18.7 -1.7
00:40 1029 30.39 858 25.34 -9.3 15.3 46 -18.9 -2
00:45 1029 30.39 858 25.34 -8.9 15.9 45 -18.7 -1.7
00:50 1029 30.39 858 25.34 -8.9 15.9 45 -19 -2.1
00:55 1029 30.39 858 25.34 -8.9 16 46 -18.6 -1.4
01:00 1029 30.39 858 25.34 -9.4 15.2 46 -18.9 -1.9
01:05 1029 30.39 858 25.34 -9.4 15 46 -19 -2.3
01:10 1029 30.39 858 25.34 -9.4 15.1 46 -19.1 -2.3
01:15 1029 30.39 858 25.34 -9.5 14.8 47 -19 -2.1
01:20 1029 30.39 858 25.34 -9.6 14.8 47 -19 -2.1
01:25 1029 30.39 858 25.34 -9.4 15.2 45 -19.2 -2.6
01:30 1029 30.39 858 25.34 -9.1 15.7 44 -19.4 -2.9
01:35 1029 30.39 858 25.34 -9.1 15.7 44 -19.2 -2.6
01:40 1029 30.39 858 25.34 -9.2 15.4 44 -19.5 -3.1
01:45 1029 30.39 858 25.34 -9.1 15.5 44 -19.4 -2.9
01:50 1029 30.39 858 25.34 -9.4 15 45 -19.2 -2.6
01:55 1029 30.39 858 25.34 -9.5 14.8 45 -19.3 -2.8
02:00 1029 30.39 858 25.34 -9.1 15.5 43 -19.5 -3.1
02:05 1029 30.39 858 25.34 -9.4 15 45 -19.4 -2.9
02:10 1029 30.39 858 25.34 -9.4 15.1 44 -19.5 -3.1
02:15 1029 30.39 858 25.34 -8.9 15.9 43 -19.4 -3
02:20 1029 30.39 858 25.34 -9.1 15.6 44 -19.3 -2.7
02:25 1029 30.39 858 25.34 -9.5 14.9 45 -19.4 -2.9
02:30 1029 30.39 858 25.34 -9.7 14.6 45 -19.5 -3
02:35 1029 30.39 858 25.34 -9.6 14.7 44 -19.7 -3.5
02:40 1029 30.39 858 25.34 -9.6 14.8 44 -19.7 -3.5
02:45 1029 30.39 858 25.34 -9.6 14.7 44 -19.6 -3.3
02:50 1029 30.39 858 25.34 -9.4 15.1 44 -19.6 -3.2
02:55 1029 30.39 858 25.34 -9.2 15.4 43 -19.6 -3.3
03:00 1029 30.39 858 25.34 -9 15.8 42 -19.7 -3.5
03:05 1029 30.39 858 25.34 -8.9 16.1 42 -19.6 -3.3
03:10 1029 30.39 858 25.34 -9 15.9 42 -19.7 -3.4
03:15 1029 30.39 858 25.34 -9.1 15.6 42 -19.8 -3.7
03:20 1029 30.39 858 25.34 -9.3 15.4 42 -19.9 -3.8
03:25 1029 30.39 858 25.34 -9.3 15.3 41 -20.2 -4.4
03:30 1029 30.39 858 25.34 -9.1 15.7 40 -20.2 -4.4
03:35 1029 30.39 858 25.34 -9.1 15.6 41 -20.2 -4.4
03:40 1029 30.39 858 25.34 -9 15.7 41 -20.2 -4.3
03:45 1029 30.39 858 25.34 -9 15.7 40 -20.4 -4.7
03:50 1029 30.39 858 25.34 -9.1 15.6 40 -20.4 -4.8
03:55 1029 30.39 858 25.34 -9.1 15.6 40 -20.5 -4.9
04:00 1029 30.39 858 25.34 -9 15.8 40 -20.4 -4.8
04:05 1029 30.39 858 25.34 -9 15.8 39 -20.6 -5.1
04:10 1028 30.36 858 25.34 -8.9 16 38 -20.7 -5.3
04:15 1028 30.36 858 25.34 -8.9 16.1 38 -20.8 -5.4
04:20 1028 30.36 858 25.34 -8.7 16.3 37 -20.9 -5.7
04:25 1028 30.36 858 25.34 -8.5 16.7 37 -20.7 -5.2
04:30 1028 30.36 858 25.34 -8.2 17.3 35 -21.2 -6.1
04:35 1029 30.39 858 25.34 -8 17.7 34 -21.2 -6.2
04:40 1028 30.36 858 25.34 -8.2 17.2 37 -20.5 -4.8
04:45 1028 30.36 858 25.34 -8.4 16.8 36 -21.1 -6.1
04:50 1028 30.36 858 25.34 -8.1 17.3 36 -20.7 -5.3
04:55 1028 30.36 858 25.34 -8.4 17 38 -20.4 -4.7
05:00 1028 30.36 858 25.34 -8.8 16.3 40 -20.2 -4.3
05:05 1028 30.36 858 25.34 -9 15.8 38 -21 -5.7
05:10 1028 30.36 858 25.34 -9.2 15.4 38 -21.1 -6
05:15 1028 30.36 857 25.31 -9.3 15.2 39 -20.9 -5.7
05:20 1028 30.36 857 25.31 -9.5 14.9 38 -21.3 -6.3
05:25 1028 30.36 857 25.31 -9 15.8 40 -20.3 -4.6
05:30 1028 30.36 857 25.31 -9 15.8 38 -20.9 -5.7
05:35 1028 30.36 857 25.31 -9.1 15.6 37 -21.2 -6.2
05:40 1028 30.36 857 25.31 -8.7 16.3 36 -21.4 -6.4
05:45 1028 30.36 857 25.31 -8.7 16.3 36 -21.1 -6
05:50 1028 30.36 857 25.31 -8.9 16 39 -20.6 -5.1
05:55 1028 30.36 857 25.31 -9.1 15.7 38 -21 -5.8
06:00 1028 30.36 857 25.31 -9.2 15.5 38 -21 -5.8
06:05 1028 30.36 857 25.31 -9.4 15.2 38 -21.1 -6
06:10 1028 30.36 857 25.31 -9.6 14.8 39 -21.2 -6.1
06:15 1028 30.36 857 25.31 -9.3 15.3 39 -20.9 -5.6
06:20 1028 30.36 857 25.31 -9.3 15.2 38 -21.3 -6.3
06:25 1028 30.36 857 25.31 -9.2 15.4 38 -21.3 -6.3
06:30 1027 30.33 857 25.31 -9.5 14.9 40 -20.7 -5.3
06:35 1027 30.33 857 25.31 -9.8 14.4 41 -20.7 -5.3
06:40 1027 30.33 857 25.31 -10 14 43 -20.4 -4.7
06:45 1027 30.33 857 25.31 -10.3 13.5 43 -20.6 -5.2
06:50 1027 30.33 856 25.28 -10.5 13 43 -20.9 -5.7
06:55 1027 30.33 856 25.28 -10.2 13.7 41 -21 -5.8
07:00 1027 30.33 857 25.31 -9.7 14.6 40 -20.9 -5.6
07:05 1027 30.33 857 25.31 -9.6 14.7 42 -20.4 -4.7
07:10 1027 30.33 857 25.31 -10 14 43 -20.2 -4.4
07:15 1027 30.33 857 25.31 -10.1 13.9 44 -20.2 -4.4
07:20 1027 30.33 857 25.31 -10.4 13.4 44 -20.5 -4.9
07:25 1027 30.33 857 25.31 -10.5 13.1 43 -20.9 -5.5
07:30 1027 30.33 856 25.28 -10.4 13.3 43 -20.7 -5.3
07:35 1027 30.33 856 25.28 -10 13.9 42 -20.6 -5.1
07:40 1027 30.33 856 25.28 -10.1 13.8 43 -20.5 -4.9
07:45 1027 30.33 856 25.28 -10.4 13.2 42 -21 -5.8
07:50 1027 30.33 856 25.28 -10.7 12.7 45 -20.4 -4.8
07:55 1027 30.33 856 25.28 -11.2 11.9 45 -20.8 -5.5
08:00 1027 30.33 856 25.28 -10.9 12.4 44 -20.9 -5.6
08:05 1027 30.33 856 25.28 -10.8 12.6 44 -20.7 -5.3
08:10 1027 30.33 856 25.28 -11 12.3 46 -20.5 -4.9
08:15 1027 30.33 856 25.28 -11 12.3 45 -20.8 -5.4
08:20 1027 30.33 856 25.28 -10.8 12.5 44 -20.7 -5.3
08:25 1027 30.33 856 25.28 -10.9 12.3 45 -20.8 -5.4
08:30 1027 30.33 856 25.28 -10.9 12.4 44 -20.8 -5.4
08:35 1027 30.33 856 25.28 -10.7 12.8 43 -20.9 -5.7
08:40 1027 30.33 856 25.28 -10.4 13.2 43 -20.8 -5.5
08:45 1027 30.33 856 25.28 -10.3 13.5 43 -20.5 -5
08:50 1027 30.33 856 25.28 -10.5 13.1 44 -20.6 -5.1
08:55 1027 30.33 856 25.28 -10.4 13.4 44 -20.5 -5
09:00 1027 30.33 856 25.28 -10.4 13.3 44 -20.3 -4.6
09:05 1027 30.33 856 25.28 -10.3 13.5 43 -20.5 -4.9
09:10 1026 30.3 856 25.28 -10 13.9 42 -20.6 -5
09:15 1026 30.3 856 25.28 -9.5 15 41 -20.4 -4.6
09:20 1026 30.3 856 25.28 -9.2 15.4 41 -20.3 -4.6
09:25 1026 30.3 856 25.28 -8.9 16 40 -20.3 -4.6
09:25 1026 30.3 856 25.28 -8.9 16 40 -20.3 -4.6
09:30 1026 30.3 856 25.28 -8.6 16.4 39 -20.3 -4.6
09:35 1026 30.3 856 25.28 -8.4 17 39 -20 -3.9
09:40 1026 30.3 855 25.25 -8.2 17.2 40 -19.7 -3.4
09:45 1026 30.3 855 25.25 -8.1 17.5 40 -19.5 -3.1
09:50 1026 30.3 855 25.25 -7.9 17.8 40 -19.2 -2.6
09:55 1026 30.3 856 25.28 -7.5 18.5 40 -18.9 -1.9
10:00 1026 30.3 856 25.28 -7.5 18.6 42 -18.3 -0.9
10:05 1027 30.33 856 25.28 -7.3 18.9 41 -18.3 -0.9
10:10 1027 30.33 856 25.28 -7.1 19.2 43 -17.8 -0
10:15 1027 30.33 856 25.28 -7.2 19.1 42 -18 -0.3
10:20 1027 30.33 856 25.28 -7.3 18.8 42 -18.3 -1
10:25 1027 30.33 856 25.28 -7.1 19.2 42 -17.9 -0.3
10:30 1027 30.33 856 25.28 -6.6 20.1 40 -18.3 -0.9
10:35 1027 30.33 856 25.28 -6.6 20.2 40 -18.1 -0.6
10:40 1027 30.33 856 25.28 -6.5 20.3 43 -17.2 1
10:45 1027 30.33 856 25.28 -6 21.1 42 -16.9 1.6
10:50 1027 30.33 856 25.28 -6 21.2 38 -18.1 -0.7
10:55 1026 30.3 856 25.28 -6.1 21 39 -17.8 -0.1
11:00 1026 30.3 856 25.28 -6 21.2 40 -17.6 0.3
11:05 1026 30.3 855 25.25 -5.7 21.8 39 -17.6 0.4
11:10 1026 30.3 855 25.25 -5.9 21.4 38 -17.9 -0.3
11:15 1026 30.3 855 25.25 -5.9 21.3 38 -18.2 -0.7
11:20 1026 30.3 855 25.25 -5.8 21.6 40 -17.3 0.8
11:25 1025 30.27 855 25.25 -5.7 21.8 39 -17.5 0.4
11:30 1025 30.27 854 25.22 -5.4 22.4 34 -18.7 -1.7
11:35 1025 30.27 854 25.22 -4.7 23.6 34 -18.2 -0.7
11:40 1025 30.27 854 25.22 -4.7 23.5 37 -17.3 0.8
11:45 1025 30.27 854 25.22 -4.7 23.5 36 -17.7 0.1
11:50 1025 30.27 854 25.22 -3.8 25.2 33 -17.8 0
11:55 1025 30.27 854 25.22 -3.3 26.1 32 -17.6 0.3
12:00 1025 30.27 854 25.22 -2.7 27.1 30 -18.2 -0.8
12:05 1025 30.27 854 25.22 -2.6 27.2 30 -18.1 -0.6
12:10 1025 30.27 854 25.22 -2 28.5 29 -17.6 0.3
12:15 1025 30.27 854 25.22 -1 30.2 30 -16.5 2.2
12:20 1025 30.27 854 25.22 -1.3 29.7 31 -16.4 2.4
12:25 1024 30.24 854 25.22 -1.3 29.7 29 -17.2 1
12:30 1024 30.24 854 25.22 -0.9 30.3 29 -16.9 1.6
12:35 1024 30.24 853 25.19 -0.8 30.6 29 -16.6 2.1
12:40 1024 30.24 853 25.19 -0.7 30.8 29 -16.6 2.2
12:45 1024 30.24 853 25.19 -0.6 31 30 -16.3 2.6
12:50 1024 30.24 853 25.19 -1 30.1 33 -15.5 4.1
12:55 1024 30.24 853 25.19 -1.3 29.6 36 -14.7 5.5
13:00 1024 30.24 853 25.19 -1.8 28.8 36 -15.2 4.7
13:05 1024 30.24 853 25.19 -2.1 28.2 33 -16.2 2.8
13:10 1024 30.24 853 25.19 -2.7 27.1 36 -15.8 3.6
13:15 1024 30.24 853 25.19 -2.8 27 34 -16.7 2
13:20 1024 30.24 853 25.19 -1.8 28.7 31 -16.9 1.7
13:25 1023 30.21 853 25.19 -1.3 29.6 34 -15.2 4.6
13:30 1023 30.21 853 25.19 -1.3 29.6 36 -14.5 5.8
13:35 1023 30.21 852 25.16 -1.5 29.3 37 -14.5 5.8
13:40 1023 30.21 852 25.16 -1.1 30.1 33 -15.5 4.1
13:45 1023 30.21 852 25.16 -0.5 31.1 32 -15.4 4.2
13:50 1023 30.21 852 25.16 -0.2 31.7 31 -15.4 4.3
13:55 1023 30.21 852 25.16 -0 31.9 31 -15.3 4.5
14:00 1023 30.21 852 25.16 0 32.1 30 -15.5 4.1
14:05 1023 30.21 852 25.16 -1.2 29.9 32 -15.9 3.4
14:10 1023 30.21 852 25.16 -1.8 28.8 32 -16.3 2.7
14:15 1023 30.21 852 25.16 -1.8 28.8 33 -16 3.2
14:20 1023 30.21 852 25.16 -1.4 29.4 30 -16.8 1.7
14:25 1022 30.18 852 25.16 -1.2 29.9 32 -15.9 3.3
14:30 1022 30.18 852 25.16 -1.1 30 31 -16.1 3.1
14:35 1022 30.18 851 25.13 -1.2 29.8 32 -15.8 3.6
14:40 1022 30.18 851 25.13 -0.9 30.3 32 -15.6 3.9
14:45 1022 30.18 851 25.13 -0.2 31.7 31 -15.5 4.1
14:50 1022 30.18 851 25.13 -0.9 30.5 33 -15.4 4.3
14:55 1022 30.18 851 25.13 -1.1 29.9 33 -15.5 4.1
15:00 1022 30.18 851 25.13 -0.9 30.4 32 -15.8 3.6
15:05 1022 30.18 851 25.13 -1.1 30 31 -16.1 3
15:10 1022 30.18 851 25.13 -0.8 30.6 31 -15.9 3.4
15:15 1022 30.18 851 25.13 -0.5 31.1 31 -15.8 3.6
15:20 1022 30.18 851 25.13 -0.7 30.8 32 -15.3 4.5
15:25 1022 30.18 851 25.13 -0.6 30.9 32 -15.4 4.2
15:30 1022 30.18 851 25.13 -0.9 30.3 32 -15.5 4.1
15:35 1022 30.18 851 25.13 -1.2 29.8 33 -15.7 3.7
15:40 1022 30.18 851 25.13 -1.1 30 31 -16.1 3
15:45 1022 30.18 851 25.13 -0.8 30.5 31 -15.9 3.3
15:50 1022 30.18 851 25.13 -0.6 30.9 32 -15.4 4.4
15:55 1022 30.18 851 25.13 -0.4 31.3 30 -15.8 3.5
16:00 1022 30.18 851 25.13 -0.4 31.2 31 -15.6 3.9
16:05 1022 30.18 851 25.13 -0.4 31.2 32 -15.1 4.8
16:10 1022 30.18 851 25.13 -1.1 30 34 -15.1 4.8
16:15 1022 30.18 851 25.13 -1.2 29.9 34 -15.1 4.9
16:20 1021 30.15 851 25.13 -1.6 29.1 37 -14.6 5.7
16:25 1021 30.15 851 25.13 -1.8 28.7 38 -14.2 6.4
16:30 1021 30.15 850 25.1 -1.8 28.7 38 -14.5 6
16:35 1021 30.15 850 25.1 -2 28.4 39 -14.4 6.1
16:40 1021 30.15 850 25.1 -2.2 28 41 -13.9 6.9
16:45 1021 30.15 850 25.1 -2.5 27.5 38 -14.9 5.2
16:50 1021 30.15 850 25.1 -2.4 27.7 38 -14.8 5.4
16:55 1021 30.15 850 25.1 -2.3 27.8 39 -14.7 5.6
17:00 1021 30.15 850 25.1 -2.3 27.8 42 -13.6 7.4
17:05 1021 30.15 850 25.1 -2.5 27.5 40 -14.3 6.3
17:10 1021 30.15 850 25.1 -2.7 27.2 40 -14.4 6
17:15 1021 30.15 850 25.1 -2.8 27 42 -14.1 6.5
17:20 1021 30.15 850 25.1 -2.8 27 43 -13.8 7.2
17:25 1021 30.15 850 25.1 -3 26.7 44 -13.5 7.7
17:30 1020 30.12 850 25.1 -3 26.7 44 -13.5 7.8
17:35 1020 30.12 850 25.1 -2.5 27.5 44 -13.2 8.2
17:40 1020 30.12 849 25.07 -2.6 27.3 44 -13.3 8.1
17:45 1020 30.12 849 25.07 -2.3 27.9 41 -13.8 7.1
17:50 1020 30.12 849 25.07 -2 28.4 43 -13 8.6
17:55 1020 30.12 849 25.07 -2.3 27.9 43 -13.3 8
18:00 1020 30.12 849 25.07 -2.3 27.8 43 -13.3 8
18:05 1020 30.12 849 25.07 -2.1 28.3 42 -13.4 7.9
18:10 1020 30.12 849 25.07 -1.9 28.6 42 -13.2 8.2
18:15 1020 30.12 849 25.07 -1.9 28.7 42 -13 8.5
18:20 1020 30.12 849 25.07 -1.8 28.8 41 -13.2 8.2
18:25 1020 30.12 849 25.07 -1.9 28.6 43 -12.9 8.9
18:30 1020 30.12 849 25.07 -2.2 28.1 44 -12.9 8.7
18:35 1019 30.09 849 25.07 -2.4 27.7 44 -13 8.6
18:40 1019 30.09 849 25.07 -2.4 27.7 43 -13.2 8.2
18:45 1019 30.09 849 25.07 -1.9 28.5 43 -13 8.6
18:50 1019 30.09 849 25.07 -0.9 30.4 38 -13.5 7.8
18:55 1019 30.09 849 25.07 -0.6 30.9 40 -12.6 9.4
19:00 1019 30.09 848 25.04 -0.8 30.5 43 -12.1 10.3
19:05 1019 30.09 848 25.04 -1.3 29.7 42 -12.7 9.2
19:10 1019 30.09 848 25.04 -1 30.2 41 -12.7 9.1
19:15 1019 30.09 848 25.04 -0.5 31.1 39 -13 8.6
19:20 1019 30.09 848 25.04 0.1 32.2 37 -12.9 8.8
19:25 1019 30.09 848 25.04 0.2 32.3 38 -12.7 9.2
19:30 1019 30.09 848 25.04 0.2 32.4 37 -12.8 9
19:35 1019 30.09 848 25.04 0.5 33 36 -12.8 9
19:40 1019 30.09 848 25.04 0.1 32.2 37 -13.1 8.5
19:45 1019 30.09 848 25.04 0.5 32.8 36 -12.9 8.8
19:50 1019 30.09 848 25.04 0.5 32.9 36 -12.9 8.7
19:55 1019 30.09 848 25.04 1.2 34.1 33 -13.5 7.7
20:00 1019 30.09 848 25.04 1.5 34.8 35 -12.3 9.8
20:05 1019 30.09 848 25.04 1.2 34.2 35 -12.5 9.5
20:10 1019 30.09 848 25.04 0.2 32.3 35 -13.6 7.6
20:15 1019 30.09 848 25.04 0.7 33.3 35 -13.2 8.3
20:20 1019 30.09 848 25.04 0.7 33.2 36 -12.6 9.3
20:25 1019 30.09 848 25.04 -0.2 31.7 37 -13.3 8
20:30 1019 30.09 848 25.04 1.4 34.5 34 -12.9 8.7
20:35 1019 30.09 848 25.04 0.6 33 36 -12.7 9.1
20:40 1019 30.09 848 25.04 -0.3 31.5 38 -13 8.6
20:45 1018 30.06 848 25.04 0.3 32.5 35 -13.4 7.9
20:50 1018 30.06 848 25.04 0.9 33.6 37 -12.1 10.1
20:55 1018 30.06 847 25.01 0.7 33.3 35 -13 8.6
21:00 1018 30.06 847 25.01 1 33.7 37 -12.3 9.9
21:05 1018 30.06 847 25.01 -0.3 31.5 39 -12.8 9
21:10 1018 30.06 847 25.01 -0.4 31.3 38 -13 8.7
21:15 1018 30.06 847 25.01 -0.5 31.2 40 -12.4 9.6
21:20 1018 30.06 847 25.01 -1.4 29.4 43 -12.6 9.4
21:25 1018 30.06 847 25.01 -0.7 30.8 39 -12.9 8.8
21:30 1018 30.06 847 25.01 -0.2 31.7 39 -12.5 9.5
21:35 1018 30.06 847 25.01 -0.5 31.2 39 -12.7 9.2
21:40 1018 30.06 847 25.01 0.6 33 37 -12.6 9.3
21:45 1018 30.06 847 25.01 0.7 33.3 37 -12.2 10
21:50 1018 30.06 847 25.01 0.2 32.4 39 -12.1 10.1
21:55 1018 30.06 847 25.01 -0.8 30.6 40 -12.7 9.2
22:00 1018 30.06 847 25.01 -0.6 31 40 -12.5 9.5
22:05 1018 30.06 847 25.01 -0.4 31.2 39 -12.7 9.1
22:10 1018 30.06 847 25.01 0.4 32.6 39 -12.1 10.2
22:15 1018 30.06 847 25.01 0.2 32.4 40 -12 10.4
22:20 1017 30.03 847 25.01 0.1 32.3 38 -12.6 9.3
22:25 1017 30.03 847 25.01 0.6 33.1 37 -12.4 9.7
22:30 1017 30.03 846 24.98 0.2 32.3 39 -12.4 9.8
22:35 1017 30.03 846 24.98 -0.2 31.6 39 -12.6 9.3
22:40 1017 30.03 846 24.98 -0.4 31.2 40 -12.5 9.4
22:45 1017 30.03 846 24.98 0.1 32.3 37 -13 8.6
22:50 1017 30.03 846 24.98 0.6 33.1 37 -12.4 9.7
22:55 1017 30.03 846 24.98 -0.7 30.8 43 -11.9 10.6
23:00 1017 30.03 846 24.98 -1.2 29.9 43 -12.3 9.8
23:05 1017 30.03 846 24.98 -0.3 31.4 38 -12.9 8.8
23:10 1017 30.03 846 24.98 -0.2 31.7 40 -12.2 10
23:15 1017 30.03 846 24.98 0.3 32.5 35 -13.4 7.9
23:20 1017 30.03 846 24.98 1.2 34.2 34 -12.8 8.9
23:25 1016 30 846 24.98 1.5 34.8 35 -12.4 9.6
23:30 1016 30 846 24.98 1.5 34.8 32 -13.3 8
23:35 1016 30 846 24.98 3.3 37.9 27 -14.2 6.5
23:40 1016 30 845 24.95 5.3 41.6 26 -12.8 8.9
23:45 1016 30 845 24.95 5.3 41.5 26 -12.6 9.2
23:50 1016 30 845 24.95 5.5 41.9 26 -12.5 9.4
23:55 1016 30 845 24.95 5.5 41.8 27 -12.3 9.8
24:00 1016 30 845 24.95 5.3 41.5 28 -12 10.4